createdAt,value
2019-05-25T00:02:29.253Z,81.50
2019-05-25T00:05:00.213Z,81.50
2019-05-25T00:07:31.085Z,81.90
2019-05-25T00:10:02.953Z,82.60
2019-05-25T00:12:35.679Z,83.70
2019-05-25T00:15:06.465Z,82.90
2019-05-25T00:17:37.076Z,83.20
2019-05-25T00:20:09.221Z,83.50
2019-05-25T00:22:40.765Z,83.20
2019-05-25T00:25:11.967Z,83.50
2019-05-25T00:27:45.511Z,83.50
2019-05-25T00:30:17.795Z,83.40
2019-05-25T00:32:49.218Z,83.30
2019-05-25T00:35:21.104Z,84.50
2019-05-25T00:37:50.172Z,84.60
2019-05-25T00:40:21.798Z,84.50
2019-05-25T00:42:52.605Z,84.00
2019-05-25T00:45:23.053Z,83.90
2019-05-25T00:47:53.419Z,83.90
2019-05-25T00:50:25.087Z,84.50
2019-05-25T00:52:53.061Z,84.30
2019-05-25T00:55:27.837Z,83.60
2019-05-25T00:57:58.915Z,83.50
2019-05-25T01:00:26.958Z,83.50
2019-05-25T01:02:54.894Z,83.30
2019-05-25T01:05:22.686Z,83.40
2019-05-25T01:07:50.550Z,83.40
2019-05-25T01:10:18.303Z,83.40
2019-05-25T01:12:46.125Z,83.40
2019-05-25T01:15:15.169Z,83.30
2019-05-25T01:17:42.949Z,83.30
2019-05-25T01:20:12.999Z,83.30
2019-05-25T01:22:40.758Z,83.30
2019-05-25T01:25:08.903Z,83.30
2019-05-25T01:27:36.641Z,83.30
2019-05-25T01:30:05.123Z,83.20
2019-05-25T01:32:33.191Z,83.10
2019-05-25T01:35:01.119Z,84.20
2019-05-25T01:37:29.172Z,84.20
2019-05-25T01:39:56.904Z,84.40
2019-05-25T01:42:24.630Z,84.40
2019-05-25T01:44:52.485Z,84.30
2019-05-25T01:47:20.197Z,84.70
2019-05-25T01:49:48.008Z,84.00
2019-05-25T01:52:15.734Z,83.10
2019-05-25T01:54:58.611Z,83.50
2019-05-25T01:57:13.522Z,83.90
2019-05-25T01:59:41.332Z,84.00
2019-05-25T02:02:09.113Z,83.50
2019-05-25T02:04:37.008Z,83.00
2019-05-25T02:07:04.769Z,84.20
2019-05-25T02:09:32.539Z,84.10
2019-05-25T02:12:00.333Z,83.60
2019-05-25T02:14:28.420Z,83.00
2019-05-25T02:16:56.401Z,83.10
2019-05-25T02:19:24.222Z,83.30
2019-05-25T02:21:51.976Z,83.20
2019-05-25T02:24:20.090Z,84.20
2019-05-25T02:26:48.076Z,85.20
2019-05-25T02:29:15.822Z,85.20
2019-05-25T02:31:43.670Z,83.70
2019-05-25T02:34:11.699Z,83.30
2019-05-25T02:36:39.478Z,83.30
2019-05-25T02:39:07.450Z,83.30
2019-05-25T02:41:35.534Z,83.30
2019-05-25T02:44:04.125Z,84.00
2019-05-25T02:46:31.912Z,83.40
2019-05-25T02:48:59.622Z,83.30
2019-05-25T02:51:27.400Z,83.30
2019-05-25T02:53:55.157Z,83.30
2019-05-25T02:56:22.986Z,83.10
2019-05-25T02:58:50.738Z,83.80
2019-05-25T03:01:18.524Z,84.90
2019-05-25T03:03:46.460Z,84.90
2019-05-25T03:06:14.561Z,84.70
2019-05-25T03:08:46.813Z,84.60
2019-05-25T03:11:15.526Z,83.90
2019-05-25T03:13:45.441Z,83.70
2019-05-25T03:16:13.163Z,83.90
2019-05-25T03:18:40.907Z,84.60
2019-05-25T03:21:08.719Z,84.30
2019-05-25T03:23:36.575Z,84.50
2019-05-25T03:26:04.415Z,84.40
2019-05-25T03:28:32.234Z,84.30
2019-05-25T03:31:00.014Z,83.60
2019-05-25T03:33:27.889Z,83.60
2019-05-25T03:35:55.827Z,83.50
2019-05-25T03:38:23.578Z,84.00
2019-05-25T03:40:51.347Z,84.70
2019-05-25T03:43:19.245Z,84.70
2019-05-25T03:45:52.215Z,83.80
2019-05-25T03:48:22.062Z,83.70
2019-05-25T03:50:49.838Z,83.80
2019-05-25T03:53:17.722Z,83.60
2019-05-25T03:55:45.470Z,84.30
2019-05-25T03:58:13.330Z,85.90
2019-05-25T04:00:41.143Z,87.00
2019-05-25T04:03:09.094Z,86.50
2019-05-25T04:05:36.843Z,87.00
2019-05-25T04:08:05.015Z,86.50
2019-05-25T04:10:32.816Z,85.00
2019-05-25T04:13:00.749Z,83.80
2019-05-25T04:15:28.524Z,84.80
2019-05-25T04:17:56.265Z,84.80
2019-05-25T04:20:24.006Z,85.20
2019-05-25T04:22:51.841Z,86.40
2019-05-25T04:25:19.639Z,87.80
2019-05-25T04:27:49.642Z,86.10
2019-05-25T04:30:18.065Z,86.60
2019-05-25T04:32:45.956Z,88.40
2019-05-25T04:35:13.974Z,87.50
2019-05-25T04:37:41.711Z,88.60
2019-05-25T04:40:09.519Z,88.70
2019-05-25T04:42:37.261Z,88.00
2019-05-25T04:45:05.935Z,88.10
2019-05-25T04:47:33.729Z,87.20
2019-05-25T04:50:03.408Z,87.40
2019-05-25T04:52:31.126Z,87.00
2019-05-25T04:54:58.976Z,86.70
2019-05-25T04:57:26.693Z,85.90
2019-05-25T04:59:54.483Z,84.10
2019-05-25T05:02:22.209Z,84.10
2019-05-25T05:04:50.030Z,84.00
2019-05-25T05:07:17.803Z,84.10
2019-05-25T05:09:45.655Z,84.10
2019-05-25T05:12:13.446Z,84.10
2019-05-25T05:14:41.654Z,85.00
2019-05-25T05:17:09.422Z,84.10
2019-05-25T05:19:37.191Z,86.50
2019-05-25T05:22:05.999Z,85.30
2019-05-25T05:24:34.205Z,84.90
2019-05-25T05:27:02.001Z,84.60
2019-05-25T05:29:29.748Z,84.50
2019-05-25T05:31:57.548Z,83.60
2019-05-25T05:34:25.403Z,83.80
2019-05-25T05:36:53.902Z,82.70
2019-05-25T05:39:23.785Z,81.40
2019-05-25T05:41:54.026Z,81.90
2019-05-25T05:44:24.039Z,83.30
2019-05-25T05:46:52.668Z,82.70
2019-05-25T05:49:21.892Z,83.80
2019-05-25T05:51:49.774Z,82.10
2019-05-25T05:54:19.064Z,83.00
2019-05-25T05:56:47.095Z,82.10
2019-05-25T05:59:14.838Z,81.60
2019-05-25T06:01:42.671Z,82.50
2019-05-25T06:04:15.764Z,82.50
2019-05-25T06:06:43.588Z,83.10
2019-05-25T06:09:11.375Z,82.80
2019-05-25T06:11:39.213Z,81.60
2019-05-25T06:14:11.995Z,81.90
2019-05-25T06:16:39.872Z,82.80
2019-05-25T06:19:07.636Z,81.00
2019-05-25T06:21:35.494Z,80.00
2019-05-25T06:24:03.430Z,80.00
2019-05-25T06:26:31.193Z,80.00
2019-05-25T06:28:59.002Z,80.20
2019-05-25T06:31:26.795Z,80.10
2019-05-25T06:33:54.674Z,79.50
2019-05-25T06:36:22.474Z,79.90
2019-05-25T06:38:50.235Z,79.80
2019-05-25T06:41:18.054Z,79.20
2019-05-25T06:43:55.921Z,80.90
2019-05-25T06:46:23.682Z,79.50
2019-05-25T06:48:51.542Z,79.80
2019-05-25T06:51:19.455Z,78.00
2019-05-25T06:53:47.317Z,75.50
2019-05-25T06:56:15.093Z,75.70
2019-05-25T06:58:42.925Z,75.90
2019-05-25T07:01:10.762Z,73.30
2019-05-25T07:03:38.692Z,71.50
2019-05-25T07:06:06.461Z,71.10
2019-05-25T07:08:34.528Z,71.50
2019-05-25T07:11:02.391Z,72.00
2019-05-25T07:13:32.246Z,70.10
2019-05-25T07:16:00.095Z,66.80
2019-05-25T07:18:27.887Z,67.10
2019-05-25T07:20:55.696Z,65.10
2019-05-25T07:23:23.456Z,62.00
2019-05-25T07:25:51.288Z,57.80
2019-05-25T07:28:19.194Z,51.40
2019-05-25T07:30:46.972Z,49.40
2019-05-25T07:33:14.802Z,46.30
2019-05-25T07:35:42.676Z,41.70
2019-05-25T07:38:10.563Z,38.30
2019-05-25T07:40:38.417Z,37.00
2019-05-25T07:43:06.816Z,35.70
2019-05-25T07:45:35.209Z,33.90
2019-05-25T07:48:04.832Z,33.50
2019-05-25T07:50:33.269Z,36.20
2019-05-25T07:53:02.251Z,38.70
2019-05-25T07:55:30.531Z,39.40
2019-05-25T07:58:15.293Z,39.10
2019-05-25T08:00:27.964Z,39.60
2019-05-25T08:02:55.749Z,36.30
2019-05-25T08:05:23.696Z,34.80
2019-05-25T08:07:51.505Z,32.40
2019-05-25T08:10:21.268Z,29.20
2019-05-25T08:12:48.984Z,27.20
2019-05-25T08:15:16.842Z,27.30
2019-05-25T08:17:44.709Z,27.60
2019-05-25T08:20:13.219Z,28.80
2019-05-25T08:22:41.042Z,28.70
2019-05-25T08:25:09.270Z,28.40
2019-05-25T08:27:37.664Z,28.50
2019-05-25T08:30:06.933Z,29.10
2019-05-25T08:32:34.848Z,28.40
2019-05-25T08:35:02.831Z,29.30
2019-05-25T08:37:30.627Z,30.30
2019-05-25T08:39:58.356Z,32.70
2019-05-25T08:42:26.177Z,33.10
2019-05-25T08:44:54.346Z,30.80
2019-05-25T08:47:22.065Z,28.40
2019-05-25T08:49:49.812Z,27.60
2019-05-25T08:52:17.662Z,27.10
2019-05-25T08:54:50.477Z,26.00
2019-05-25T08:57:18.784Z,25.90
2019-05-25T08:59:46.808Z,25.80
2019-05-25T09:02:14.917Z,23.70
2019-05-25T09:04:42.757Z,24.80
2019-05-25T09:07:10.511Z,24.90
2019-05-25T09:09:38.319Z,24.50
2019-05-25T09:12:06.063Z,24.60
2019-05-25T09:14:34.111Z,25.50
2019-05-25T09:17:02.493Z,26.00
2019-05-25T09:19:30.823Z,25.90
2019-05-25T09:22:02.687Z,28.10
2019-05-25T09:24:29.098Z,28.60
2019-05-25T09:26:57.435Z,28.40
2019-05-25T09:29:25.626Z,27.90
2019-05-25T09:31:53.769Z,28.80
2019-05-25T09:34:21.742Z,29.20
2019-05-25T09:36:49.481Z,28.60
2019-05-25T09:39:17.310Z,30.00
2019-05-25T09:41:45.056Z,29.70
2019-05-25T09:44:12.880Z,30.00
2019-05-25T09:46:40.634Z,31.90
2019-05-25T09:49:08.485Z,32.70
2019-05-25T09:51:36.316Z,33.10
2019-05-25T09:54:04.154Z,32.60
2019-05-25T09:56:31.913Z,33.90
2019-05-25T09:59:01.962Z,30.70
2019-05-25T10:01:29.758Z,29.80
2019-05-25T10:03:57.527Z,26.80
2019-05-25T10:06:25.294Z,23.90
2019-05-25T10:08:53.081Z,21.90
2019-05-25T10:11:20.957Z,21.80
2019-05-25T10:13:48.670Z,19.70
2019-05-25T10:16:16.472Z,16.70
2019-05-25T10:18:44.215Z,16.40
2019-05-25T10:21:14.793Z,16.90
2019-05-25T10:23:41.664Z,16.70
2019-05-25T10:26:09.561Z,16.50
2019-05-25T10:28:37.342Z,15.80
2019-05-25T10:31:08.119Z,16.60
2019-05-25T10:33:36.036Z,15.90
2019-05-25T10:36:03.898Z,13.80
2019-05-25T10:38:31.734Z,13.70
2019-05-25T10:40:59.532Z,14.20
2019-05-25T10:43:27.408Z,13.70
2019-05-25T10:45:55.256Z,12.50
2019-05-25T10:48:23.049Z,14.50
2019-05-25T10:50:50.965Z,13.60
2019-05-25T10:53:18.926Z,14.20
2019-05-25T10:55:46.699Z,13.00
2019-05-25T10:58:14.507Z,13.90
2019-05-25T11:00:42.280Z,15.00
2019-05-25T11:03:10.235Z,16.30
2019-05-25T11:05:38.020Z,18.50
2019-05-25T11:08:05.934Z,19.50
2019-05-25T11:10:33.799Z,22.00
2019-05-25T11:13:01.664Z,23.50
2019-05-25T11:15:29.425Z,23.50
2019-05-25T11:17:57.218Z,24.70
2019-05-25T11:20:25.025Z,24.30
2019-05-25T11:22:52.921Z,22.10
2019-05-25T11:25:20.710Z,21.00
2019-05-25T11:27:48.454Z,18.90
2019-05-25T11:30:16.728Z,17.70
2019-05-25T11:32:44.634Z,17.60
2019-05-25T11:35:13.034Z,16.10
2019-05-25T11:37:40.819Z,16.00
2019-05-25T11:40:09.423Z,16.10
2019-05-25T11:42:37.225Z,18.00
2019-05-25T11:45:05.476Z,17.40
2019-05-25T11:47:33.269Z,19.70
2019-05-25T11:50:01.025Z,20.10
2019-05-25T11:52:28.726Z,21.50
2019-05-25T11:54:56.510Z,19.70
2019-05-25T11:57:24.321Z,18.80
2019-05-25T11:59:52.220Z,17.20
2019-05-25T12:02:20.067Z,16.50
2019-05-25T12:04:47.941Z,15.30
2019-05-25T12:07:15.737Z,13.70
2019-05-25T12:09:43.511Z,16.00
2019-05-25T12:12:11.376Z,16.40
2019-05-25T12:14:39.386Z,17.90
2019-05-25T12:17:07.157Z,19.50
2019-05-25T12:19:34.968Z,17.60
2019-05-25T12:22:02.705Z,17.30
2019-05-25T12:24:30.495Z,15.60
2019-05-25T12:27:00.682Z,14.70
2019-05-25T12:29:28.482Z,14.90
2019-05-25T12:32:04.251Z,13.40
2019-05-25T12:34:26.065Z,14.20
2019-05-25T12:36:53.893Z,15.20
2019-05-25T12:39:21.728Z,14.60
2019-05-25T12:41:49.512Z,14.70
2019-05-25T12:44:17.278Z,15.40
2019-05-25T12:46:45.055Z,14.60
2019-05-25T12:49:12.902Z,13.70
2019-05-25T12:51:40.649Z,14.10
2019-05-25T12:54:08.397Z,13.50
2019-05-25T12:56:36.308Z,12.50
2019-05-25T12:59:04.235Z,12.40
2019-05-25T13:01:32.094Z,12.00
2019-05-25T13:03:59.862Z,11.90
2019-05-25T13:06:47.099Z,10.80
2019-05-25T13:09:14.887Z,13.50
2019-05-25T13:11:42.778Z,11.60
2019-05-25T13:14:14.633Z,12.70
2019-05-25T13:16:40.581Z,9.70
2019-05-25T13:19:08.710Z,9.20
2019-05-25T13:21:36.573Z,8.40
2019-05-25T13:24:04.521Z,10.90
2019-05-25T13:26:32.369Z,10.00
2019-05-25T13:29:00.098Z,9.40
2019-05-25T13:31:27.950Z,8.50
2019-05-25T13:33:56.108Z,10.30
2019-05-25T13:36:23.939Z,10.30
2019-05-25T13:38:51.746Z,10.20
2019-05-25T13:41:20.624Z,8.60
2019-05-25T13:43:50.142Z,9.50
2019-05-25T13:46:18.009Z,9.50
2019-05-25T13:48:45.850Z,9.40
2019-05-25T13:51:13.644Z,9.20
2019-05-25T13:53:41.400Z,8.20
2019-05-25T13:56:09.295Z,9.40
2019-05-25T13:58:39.116Z,9.90
2019-05-25T14:01:06.975Z,10.30
2019-05-25T14:03:34.716Z,10.10
2019-05-25T14:06:02.548Z,9.60
2019-05-25T14:08:30.368Z,10.00
2019-05-25T14:10:58.142Z,9.80
2019-05-25T14:13:25.938Z,8.70
2019-05-25T14:16:06.100Z,9.40
2019-05-25T14:18:23.401Z,9.60
2019-05-25T14:20:51.236Z,10.20
2019-05-25T14:23:18.982Z,10.50
2019-05-25T14:25:46.716Z,9.90
2019-05-25T14:28:14.510Z,10.30
2019-05-25T14:30:42.360Z,9.10
2019-05-25T14:33:10.318Z,9.90
2019-05-25T14:35:38.140Z,9.20
2019-05-25T14:38:05.952Z,9.00
2019-05-25T14:40:33.744Z,9.10
2019-05-25T14:43:07.140Z,10.10
2019-05-25T14:45:34.954Z,9.60
2019-05-25T14:48:02.823Z,9.70
2019-05-25T14:50:30.619Z,10.30
2019-05-25T14:52:58.434Z,11.50
2019-05-25T14:55:26.487Z,10.90
2019-05-25T14:57:54.408Z,10.30
2019-05-25T15:00:22.258Z,10.20
2019-05-25T15:02:50.313Z,10.70
2019-05-25T15:05:18.321Z,11.90
2019-05-25T15:07:46.161Z,10.40
2019-05-25T15:10:14.264Z,11.30
2019-05-25T15:12:42.140Z,9.90
2019-05-25T15:15:10.224Z,10.90
2019-05-25T15:17:38.194Z,12.20
2019-05-25T15:20:06.927Z,11.80
2019-05-25T15:22:35.013Z,12.70
2019-05-25T15:25:03.220Z,11.50
2019-05-25T15:27:31.155Z,12.50
2019-05-25T15:29:58.907Z,12.60
2019-05-25T15:32:26.786Z,12.40
2019-05-25T15:34:54.534Z,12.30
2019-05-25T15:37:22.349Z,12.10
2019-05-25T15:39:50.209Z,12.50
2019-05-25T15:42:18.048Z,12.30
2019-05-25T15:44:45.986Z,13.40
2019-05-25T15:47:13.801Z,13.90
2019-05-25T15:49:41.615Z,13.10
2019-05-25T15:52:09.343Z,14.60
2019-05-25T15:54:37.211Z,15.80
2019-05-25T15:57:04.969Z,15.90
2019-05-25T15:59:32.741Z,14.90
2019-05-25T16:02:00.490Z,14.80
2019-05-25T16:04:28.651Z,15.70
2019-05-25T16:06:56.439Z,15.60
2019-05-25T16:09:24.217Z,15.50
2019-05-25T16:11:52.003Z,17.60
2019-05-25T16:14:24.995Z,16.40
2019-05-25T16:16:52.751Z,16.50
2019-05-25T16:19:20.523Z,17.20
2019-05-25T16:21:48.323Z,16.50
2019-05-25T16:24:16.115Z,16.20
2019-05-25T16:26:46.415Z,17.30
2019-05-25T16:29:13.562Z,16.60
2019-05-25T16:31:41.373Z,17.30
2019-05-25T16:34:09.268Z,18.40
2019-05-25T16:36:37.037Z,19.10
2019-05-25T16:39:06.452Z,19.60
2019-05-25T16:41:34.728Z,19.50
2019-05-25T16:44:02.550Z,19.30
2019-05-25T16:46:30.406Z,19.20
2019-05-25T16:48:58.180Z,19.10
2019-05-25T16:51:25.997Z,20.30
2019-05-25T16:53:53.753Z,21.40
2019-05-25T16:56:21.559Z,22.10
2019-05-25T16:58:49.372Z,22.00
2019-05-25T17:01:18.225Z,21.50
2019-05-25T17:03:46.466Z,22.50
2019-05-25T17:06:14.284Z,23.90
2019-05-25T17:08:42.090Z,23.70
2019-05-25T17:11:09.915Z,24.30
2019-05-25T17:13:37.622Z,24.70
2019-05-25T17:16:05.436Z,24.60
2019-05-25T17:18:33.259Z,24.90
2019-05-25T17:21:01.028Z,25.20
2019-05-25T17:23:29.107Z,25.90
2019-05-25T17:25:56.860Z,27.20
2019-05-25T17:28:24.638Z,27.70
2019-05-25T17:30:52.448Z,26.70
2019-05-25T17:33:20.191Z,27.60
2019-05-25T17:35:47.996Z,27.70
2019-05-25T17:38:15.738Z,27.70
2019-05-25T17:40:43.568Z,27.60
2019-05-25T17:43:11.680Z,27.70
2019-05-25T17:45:39.462Z,27.90
2019-05-25T17:48:07.276Z,27.60
2019-05-25T17:50:35.007Z,27.70
2019-05-25T17:53:03.031Z,27.80
2019-05-25T17:55:30.823Z,27.80
2019-05-25T17:57:58.689Z,27.70
2019-05-25T18:00:42.610Z,27.60
2019-05-25T18:03:10.505Z,27.60
2019-05-25T18:05:38.300Z,27.60
2019-05-25T18:08:06.289Z,27.50
2019-05-25T18:10:51.358Z,27.50
2019-05-25T18:13:04.062Z,27.90
2019-05-25T18:15:32.256Z,28.20
2019-05-25T18:18:00.099Z,28.70
2019-05-25T18:20:27.927Z,29.20
2019-05-25T18:22:55.751Z,30.00
2019-05-25T18:25:23.568Z,30.20
2019-05-25T18:27:51.449Z,29.60
2019-05-25T18:30:19.853Z,29.80
2019-05-25T18:32:47.860Z,31.30
2019-05-25T18:35:15.700Z,31.10
2019-05-25T18:37:43.561Z,31.70
2019-05-25T18:40:11.471Z,32.30
2019-05-25T18:42:39.602Z,32.20
2019-05-25T18:45:10.845Z,33.80
2019-05-25T18:47:38.689Z,36.90
2019-05-25T18:50:08.225Z,36.80
2019-05-25T18:52:36.100Z,39.00
2019-05-25T18:55:05.021Z,40.00
2019-05-25T18:57:32.850Z,41.00
2019-05-25T19:00:00.669Z,42.00
2019-05-25T19:02:28.580Z,42.90
2019-05-25T19:04:59.960Z,43.50
2019-05-25T19:07:26.227Z,43.70
2019-05-25T19:09:54.040Z,44.70
2019-05-25T19:12:21.885Z,45.80
2019-05-25T19:14:54.982Z,46.40
2019-05-25T19:17:22.881Z,46.30
2019-05-25T19:19:50.712Z,46.80
2019-05-25T19:22:19.694Z,47.00
2019-05-25T19:24:47.624Z,48.30
2019-05-25T19:27:15.375Z,48.10
2019-05-25T19:29:43.227Z,48.60
2019-05-25T19:32:11.002Z,48.90
2019-05-25T19:34:58.526Z,48.50
2019-05-25T19:37:19.399Z,48.90
2019-05-25T19:39:43.353Z,49.20
2019-05-25T19:42:11.151Z,49.40
2019-05-25T19:44:39.084Z,49.70
2019-05-25T19:47:07.026Z,49.90
2019-05-25T19:49:34.842Z,49.90
2019-05-25T19:52:02.821Z,50.60
2019-05-25T19:54:30.679Z,50.20
2019-05-25T19:56:58.583Z,50.60
2019-05-25T19:59:26.396Z,50.90
2019-05-25T20:01:54.257Z,51.00
2019-05-25T20:04:22.195Z,51.20
2019-05-25T20:06:50.724Z,51.40
2019-05-25T20:09:18.724Z,51.10
2019-05-25T20:11:46.639Z,51.20
2019-05-25T20:14:24.704Z,51.40
2019-05-25T20:16:52.508Z,51.70
2019-05-25T20:19:20.581Z,52.00
2019-05-25T20:21:50.786Z,52.50
2019-05-25T20:24:29.636Z,52.50
2019-05-25T20:27:01.346Z,52.40
2019-05-25T20:29:27.209Z,53.40
2019-05-25T20:31:55.003Z,53.70
2019-05-25T20:34:22.787Z,55.30
2019-05-25T20:36:50.627Z,55.10
2019-05-25T20:39:18.483Z,55.20
2019-05-25T20:41:46.354Z,55.10
2019-05-25T20:44:14.292Z,56.00
2019-05-25T20:46:42.102Z,54.90
2019-05-25T20:49:09.868Z,55.00
2019-05-25T20:51:37.687Z,56.80
2019-05-25T20:54:05.721Z,55.00
2019-05-25T20:56:33.545Z,56.70
2019-05-25T20:59:01.279Z,57.00
2019-05-25T21:01:29.118Z,58.10
2019-05-25T21:03:57.040Z,59.00
2019-05-25T21:06:24.810Z,61.40
2019-05-25T21:08:52.651Z,62.30
2019-05-25T21:11:20.454Z,61.80
2019-05-25T21:13:48.474Z,61.20
2019-05-25T21:16:16.288Z,62.50
2019-05-25T21:18:44.083Z,62.60
2019-05-25T21:21:11.890Z,63.70
2019-05-25T21:23:39.755Z,63.00
2019-05-25T21:26:07.636Z,64.50
2019-05-25T21:28:35.519Z,64.80
2019-05-25T21:31:03.238Z,64.70
2019-05-25T21:33:31.065Z,64.60
2019-05-25T21:36:08.183Z,64.90
2019-05-25T21:38:28.597Z,66.40
2019-05-25T21:40:56.398Z,67.20
2019-05-25T21:43:24.200Z,67.60
2019-05-25T21:45:52.017Z,67.80
2019-05-25T21:48:19.836Z,67.60
2019-05-25T21:50:47.777Z,66.40
2019-05-25T21:53:15.568Z,66.40
2019-05-25T21:55:43.342Z,66.10
2019-05-25T21:58:11.094Z,67.70
2019-05-25T22:00:39.665Z,68.50
2019-05-25T22:03:32.090Z,68.10
2019-05-25T22:05:59.875Z,68.00
2019-05-25T22:08:27.643Z,69.20
2019-05-25T22:10:55.378Z,69.20
2019-05-25T22:13:28.330Z,69.50
2019-05-25T22:15:53.035Z,70.00
2019-05-25T22:18:20.764Z,69.60
2019-05-25T22:20:49.365Z,71.00
2019-05-25T22:23:17.120Z,71.60
2019-05-25T22:25:44.948Z,71.70
2019-05-25T22:28:12.737Z,71.80
2019-05-25T22:30:40.452Z,71.30
2019-05-25T22:33:08.297Z,72.30
2019-05-25T22:35:44.620Z,73.50
2019-05-25T22:38:12.435Z,73.90
2019-05-25T22:40:40.385Z,74.00
2019-05-25T22:43:08.475Z,73.80
2019-05-25T22:45:36.358Z,72.80
2019-05-25T22:48:04.204Z,73.70
2019-05-25T22:50:33.060Z,73.70
2019-05-25T22:53:00.872Z,73.70
2019-05-25T22:55:28.644Z,73.70
2019-05-25T22:57:56.461Z,73.50
2019-05-25T23:00:24.200Z,73.70
2019-05-25T23:02:52.145Z,74.20
2019-05-25T23:05:19.963Z,74.60
2019-05-25T23:07:47.751Z,74.80
2019-05-25T23:10:15.754Z,75.00
2019-05-25T23:12:43.564Z,74.70
2019-05-25T23:15:11.681Z,74.60
2019-05-25T23:17:39.453Z,74.60
2019-05-25T23:20:07.583Z,75.60
2019-05-25T23:22:35.399Z,75.90
2019-05-25T23:25:03.412Z,75.40
2019-05-25T23:27:31.209Z,75.20
2019-05-25T23:29:58.982Z,75.60
2019-05-25T23:32:26.823Z,76.10
2019-05-25T23:34:54.609Z,76.40
2019-05-25T23:37:22.427Z,76.30
2019-05-25T23:39:50.191Z,76.40
2019-05-25T23:42:17.973Z,75.80
2019-05-25T23:44:46.035Z,76.70
2019-05-25T23:47:13.837Z,78.30
2019-05-25T23:49:41.569Z,77.90
2019-05-25T23:52:09.438Z,78.60
2019-05-25T23:54:37.376Z,78.90
2019-05-25T23:57:05.195Z,79.00
2019-05-25T23:59:32.939Z,79.00
